Latest Weather Observations for Hamilton

IDV60801

Issued at 10:05 pm EDT Monday 20 October 2014 (issued every 30 minutes, with the page automatically refreshed every 10 minutes)

About weather observations | Map of weather stations | Latest weather observations for VIC | Other Formats
Station Details ID: 090173 Name: HAMILTON AIRPORT Lat: -37.65 Lon: 142.06 Height: 241.1 m
Data from the previous 72 hours. | See also: Recent months at Hamilton
Date/Time
EDT
Temp
°C
App
Temp
°C
Dew
Point
Rel
Hum
%
Delta-T
°C
Wind Press
QNH
hPa
Press
MSL
hPa
Rain
since 9 am
mm
Dir
 
Spd
km/h
Gust
km/h
Spd
kts
Gust
kts
20/10:00pm 9.9 4.1 7.8 87 1.0 E 28 39 15 21 1026.7 1026.8 0.0
20/09:30pm 10.2 3.9 7.3 82 1.4 E 30 39 16 21 1026.8 1026.9 0.0
20/09:00pm 10.8 4.3 6.7 76 1.9 E 30 41 16 22 1026.6 1026.7 0.0
20/08:30pm 11.2 5.5 6.7 74 2.2 ESE 26 33 14 18 1026.4 1026.5 0.0
20/08:00pm 12.2 6.5 6.5 68 2.7 ESE 26 32 14 17 1026.3 1026.4 0.0
20/07:30pm 13.3 7.9 6.4 63 3.3 ESE 24 32 13 17 1026.4 1026.5 0.0
20/07:00pm 14.6 9.1 5.9 56 4.2 ESE 24 32 13 17 1026.3 1026.4 0.0
20/06:30pm 15.6 9.6 5.2 50 5.0 ESE 26 35 14 19 1026.6 1026.7 0.0
20/06:00pm 16.6 9.7 4.6 45 5.7 ESE 30 41 16 22 1026.6 1026.7 0.0
20/05:30pm 17.7 10.4 4.3 41 6.4 ESE 32 41 17 22 1026.8 1026.9 0.0
20/05:00pm 18.3 11.6 5.8 44 6.2 ESE 30 39 16 21 1026.9 1027.0 0.0
20/04:30pm 18.2 11.1 6.4 46 5.9 ESE 33 43 18 23 1026.8 1026.9 0.0
20/04:08pm 18.9 12.8 6.4 44 6.3 ESE 28 46 15 25 1026.9 1027.0 0.0
20/04:00pm 19.0 12.6 6.8 45 6.2 ESE 30 41 16 22 1026.9 1027.0 0.0
20/03:30pm 18.7 12.7 6.9 46 6.0 ESE 28 41 15 22 1027.2 1027.3 0.0
20/03:00pm 19.5 13.2 7.6 46 6.1 ESE 30 39 16 21 1027.2 1027.3 0.0
20/02:30pm 18.8 12.2 7.9 49 5.6 ESE 32 41 17 22 1027.6 1027.7 0.0
20/02:00pm 18.2 11.4 7.0 48 5.6 ESE 32 43 17 23 1027.8 1027.9 0.0
20/01:30pm 17.7 10.6 6.6 48 5.6 ESE 33 44 18 24 1028.1 1028.2 0.0
20/01:00pm 16.4 9.9 6.5 52 4.9 ESE 30 39 16 21 1028.6 1028.6 0.0
20/12:30pm 15.8 8.8 6.0 52 4.8 ESE 32 43 17 23 1029.1 1029.1 0.0
20/12:00pm 15.1 7.8 5.6 53 4.5 E 33 43 18 23 1029.3 1029.3 0.0
20/11:30am 14.8 7.6 5.9 55 4.3 E 33 43 18 23 1029.7 1029.8 0.0
20/11:00am 13.6 6.3 5.5 58 3.8 E 33 43 18 23 1030.0 1030.1 0.0
20/10:47am 12.8 5.9 6.4 65 3.1 E 32 37 17 20 1030.0 1030.1 0.0
20/10:30am 12.5 4.2 6.1 65 3.1 ESE 39 50 21 27 1029.8 1029.9 0.0
20/10:12am 11.7 2.7 6.2 69 2.6 ESE 43 57 23 31 1029.8 1029.9 0.0
20/10:03am 12.1 4.6 6.4 68 2.7 ESE 35 50 19 27 1029.9 1030.0 0.0
20/10:00am 11.7 3.4 6.2 69 2.6 ESE 39 50 21 27 1029.9 1030.0 0.0
20/09:30am 10.7 2.7 5.9 72 2.3 ESE 37 48 20 26 1029.7 1029.8 0.0
20/09:00am 9.7 2.1 5.9 77 1.8 ESE 35 46 19 25 1029.5 1029.6 0.0
20/08:30am 8.7 1.7 6.0 83 1.2 ESE 32 41 17 22 1029.4 1029.4 0.0
20/08:00am 7.5 0.8 5.8 89 0.8 ESE 30 39 16 21 1028.8 1028.8 0.0
20/07:30am 6.2 -0.8 5.8 97 0.2 ESE 32 37 17 20 1028.3 1028.3 0.0
20/07:00am 5.5 -0.9 5.2 98 0.1 ESE 28 35 15 19 1028.3 1028.3 0.0
20/06:30am 5.7 -0.2 5.6 99 0.0 ESE 26 32 14 17 1028.1 1028.2 0.0
20/06:00am 5.8 -0.5 5.5 98 0.1 ESE 28 35 15 19 1027.8 1027.9 0.0
20/05:30am 6.1 -0.2 5.8 98 0.1 ESE 28 39 15 21 1027.6 1027.7 0.0
20/05:00am 6.5 1.1 6.2 98 0.1 ESE 24 30 13 16 1027.4 1027.5 0.0
20/04:30am 6.8 0.3 6.5 98 0.1 ESE 30 37 16 20 1027.4 1027.5 0.0
20/04:00am 6.8 0.7 6.4 97 0.2 ESE 28 35 15 19 1027.4 1027.5 0.0
20/03:30am 6.9 1.2 6.5 97 0.2 ESE 26 32 14 17 1027.4 1027.5 0.0
20/03:00am 7.3 1.6 6.9 97 0.2 ESE 26 33 14 18 1027.6 1027.7 0.0
20/02:30am 7.6 2.0 7.2 97 0.2 ESE 26 32 14 17 1027.5 1027.6 0.0
20/02:00am 8.1 2.6 7.5 96 0.3 SE 26 35 14 19 1028.1 1028.2 0.0
20/01:30am 8.8 2.6 7.9 94 0.4 SE 30 46 16 25 1028.1 1028.2 0.0
20/01:00am 9.5 3.1 8.4 93 0.5 SE 32 50 17 27 1028.0 1028.1 0.0
20/12:57am 9.5 3.4 8.4 93 0.5 SE 30 50 16 27 1028.0 1028.1 0.0
20/12:42am 9.7 3.7 8.8 94 0.4 SE 30 39 16 21 1028.1 1028.2 0.0
20/12:41am 9.7 3.7 8.8 94 0.4 SE 30 39 16 21 1028.1 1028.2 0.0
20/12:30am 9.7 3.7 8.8 94 0.4 SE 30 39 16 21 1028.0 1028.1 0.0
20/12:00am 9.8 3.9 9.0 95 0.4 SE 30 43 16 23 1028.0 1028.1 0.0
 
Date/Time
EDT
Temp
°C
App
Temp
°C
Dew
Point
Rel
Hum
%
Delta-T
°C
Wind Press
QNH
hPa
Press
MSL
hPa
Rain
since 9 am
mm
Dir
 
Spd
km/h
Gust
km/h
Spd
kts
Gust
kts
19/11:30pm 9.9 4.4 9.1 95 0.4 SE 28 37 15 20 1028.1 1028.2 0.0
19/11:00pm 10.1 4.6 9.3 95 0.4 SE 28 37 15 20 1028.1 1028.2 0.0
19/10:30pm 10.4 4.6 9.5 94 0.5 SE 30 39 16 21 1028.3 1028.3 0.0
19/10:12pm 10.6 5.6 9.7 94 0.5 SE 26 37 14 20 1028.0 1028.1 0.0
19/10:06pm 10.7 5.0 9.8 94 0.5 SSE 30 44 16 24 1027.8 1027.9 0.0
19/10:00pm 10.6 4.4 9.5 93 0.6 SSE 32 44 17 24 1027.4 1027.5 0.0
19/09:30pm 10.8 5.5 9.9 94 0.5 SSE 28 37 15 20 1027.4 1027.5 0.0
19/09:21pm 10.8 6.2 9.7 93 0.6 SSE 24 35 13 19 1027.2 1027.3 0.0
19/09:00pm 11.3 6.4 9.9 91 0.7 SSE 26 35 14 19 1027.3 1027.4 0.0
19/08:30pm 12.0 7.9 10.1 88 1.0 SSE 22 32 12 17 1026.8 1026.9 0.0
19/08:18pm 12.2 7.8 10.3 88 1.0 SSE 24 32 13 17 1026.4 1026.5 0.0
19/08:00pm 12.3 8.2 10.2 87 1.1 SSE 22 28 12 15 1026.5 1026.6 0.0
19/07:30pm 12.6 9.1 10.1 85 1.3 SSE 19 26 10 14 1025.9 1025.9 0.0
19/07:23pm 12.7 9.0 10.1 84 1.4 SSE 20 24 11 13 1025.7 1025.7 0.0
19/07:00pm 13.3 10.3 10.7 84 1.4 SSE 17 24 9 13 1024.8 1024.8 0.0
19/06:30pm 13.8 10.2 10.6 81 1.7 SSE 20 26 11 14 1024.5 1024.5 0.0
19/06:00pm 14.0 9.8 11.0 82 1.6 SSE 24 35 13 19 1024.4 1024.4 0.0
19/05:30pm 14.2 9.8 11.7 85 1.4 S 26 35 14 19 1024.0 1024.0 0.0
19/05:00pm 14.9 10.6 12.0 83 1.6 S 26 35 14 19 1023.6 1023.7 0.0
19/04:30pm 15.2 9.7 12.0 81 1.8 S 32 39 17 21 1023.4 1023.5 0.0
19/04:24pm 15.9 10.4 12.6 81 1.8 S 33 39 18 21 1023.0 1023.1 0.0
19/04:00pm 17.3 12.9 13.0 76 2.4 S 28 37 15 20 1022.5 1022.6 0.0
19/03:30pm 18.7 15.7 13.8 73 2.8 S 22 32 12 17 1021.8 1021.8 0.0
19/03:00pm 19.2 15.7 13.4 69 3.3 SSW 24 28 13 15 1021.7 1021.7 0.0
19/02:30pm 20.9 18.7 13.4 62 4.3 S 17 20 9 11 1021.2 1021.2 0.0
19/02:00pm 21.3 17.3 13.0 59 4.8 SW 26 33 14 18 1021.4 1021.4 0.0
19/01:30pm 24.2 19.4 9.0 38 8.3 SW 24 32 13 17 1021.0 1021.0 0.0
19/01:00pm 24.7 19.3 7.8 34 9.0 WSW 26 35 14 19 1020.8 1020.8 0.0
19/12:30pm 25.4 21.2 8.4 34 9.2 W 20 26 11 14 1020.7 1020.7 0.0
19/12:07pm 24.3 20.0 7.9 35 8.8 WNW 20 26 11 14 1020.7 1020.7 0.0
19/12:06pm 24.1 19.9 8.1 36 8.6 WNW 20 26 11 14 1020.7 1020.7 0.0
19/12:00pm 23.9 19.3 6.7 33 9.0 WNW 20 24 11 13 1020.6 1020.6 0.0
19/11:30am 22.9 17.8 5.8 33 8.7 NW 22 28 12 15 1020.6 1020.6 0.0
19/11:00am 22.3 17.2 6.1 35 8.3 NNW 22 28 12 15 1020.6 1020.6 0.0
19/10:30am 21.2 16.7 5.9 37 7.7 NW 19 22 10 12 1020.7 1020.7 0.0
19/10:00am 20.8 14.4 5.2 36 7.8 NNW 28 35 15 19 1019.9 1019.9 0.0
19/09:30am 20.3 15.0 5.1 37 7.5 N 22 28 12 15 1020.2 1020.2 0.0
19/09:00am 18.4 13.5 4.9 41 6.6 N 20 26 11 14 1020.1 1020.1 0.0
19/08:30am 15.9 12.0 5.2 49 5.2 N 15 22 8 12 1020.1 1020.1 0.0
19/08:10am 14.9 11.2 4.6 50 4.9 NW 13 15 7 8 1020.5 1020.5 0.0
19/08:00am 14.7 11.0 4.7 51 4.7 WNW 13 15 7 8 1020.6 1020.6 0.0
19/07:30am 13.5 8.8 3.3 50 4.6 W 17 20 9 11 1020.4 1020.4 0.0
19/07:00am 15.5 10.2 2.0 40 6.0 N 19 24 10 13 1019.8 1019.8 0.0
19/06:32am 15.3 10.0 1.8 40 6.0 N 19 24 10 13 1019.3 1019.4 0.0
19/06:30am 15.5 10.2 2.0 40 6.1 N 19 22 10 12 1019.3 1019.4 0.0
19/06:08am 14.4 9.3 3.2 47 5.1 N 19 20 10 11 1019.0 1019.1 0.0
19/06:00am 14.2 9.2 3.4 48 4.9 N 19 20 10 11 1018.9 1019.0 0.0
19/05:35am 11.9 8.0 3.2 55 3.9 N 13 17 7 9 1018.9 1019.0 0.0
19/05:30am 11.5 7.6 3.5 58 3.6 N 13 15 7 8 1019.0 1019.1 0.0
19/05:00am 12.1 8.5 3.1 54 4.0 NNW 11 13 6 7 1019.0 1019.1 0.0
19/04:30am 12.5 8.8 2.1 49 4.6 W 11 13 6 7 1019.3 1019.4 0.0
19/04:18am 11.7 8.1 2.7 54 4.0 W 11 13 6 7 1019.4 1019.5 0.0
19/04:17am 11.7 8.1 2.7 54 4.0 W 11 13 6 7 1019.4 1019.5 0.0
19/04:00am 11.6 7.9 2.6 54 3.9 W 11 13 6 7 1019.4 1019.5 0.0
19/03:30am 13.5 9.8 2.1 46 5.0 NNW 11 13 6 7 1019.6 1019.6 0.0
19/03:12am 14.3 10.9 1.9 43 5.5 NNW 9 11 5 6 1019.6 1019.6 0.0
19/03:00am 13.4 10.4 2.3 47 4.9 NW 7 9 4 5 1019.9 1019.9 0.0
19/02:54am 13.9 10.6 2.2 45 5.2 NW 9 9 5 5 1019.9 1019.9 0.0
19/02:32am 13.8 9.7 2.4 46 5.1 N 13 15 7 8 1020.1 1020.1 0.0
19/02:30am 13.9 9.9 2.8 47 5.0 N 13 15 7 8 1020.1 1020.1 0.0
19/02:00am 15.5 11.0 2.3 41 5.9 N 15 19 8 10 1020.3 1020.3 0.0
19/01:30am 17.2 12.0 2.4 37 6.8 N 19 24 10 13 1020.4 1020.4 0.0
19/01:00am 16.4 11.1 2.8 40 6.2 N 20 26 11 14 1020.5 1020.5 0.0
19/12:30am 15.7 11.1 3.5 44 5.7 N 17 20 9 11 1020.8 1020.8 0.0
19/12:00am 16.0 12.2 4.1 45 5.6 N 13 17 7 9 1020.9 1020.9 0.0
 
Date/Time
EDT
Temp
°C
App
Temp
°C
Dew
Point
Rel
Hum
%
Delta-T
°C
Wind Press
QNH
hPa
Press
MSL
hPa
Rain
since 9 am
mm
Dir
 
Spd
km/h
Gust
km/h
Spd
kts
Gust
kts
18/11:30pm 15.5 11.4 4.5 48 5.2 N 15 17 8 9 1021.0 1021.0 0.0
18/11:00pm 15.8 11.7 4.5 47 5.3 N 15 17 8 9 1020.9 1020.9 0.0
18/10:30pm 17.6 12.7 4.2 41 6.4 N 19 24 10 13 1020.9 1020.9 0.0
18/10:00pm 18.5 14.5 5.0 41 6.6 N 15 17 8 9 1021.1 1021.1 0.0
18/09:30pm 18.9 14.9 5.0 40 6.8 N 15 17 8 9 1021.1 1021.1 0.0
18/09:00pm 19.1 16.0 7.2 46 6.1 N 13 13 7 7 1020.8 1020.8 0.0
18/08:30pm 21.2 18.0 6.7 39 7.5 NW 13 17 7 9 1020.5 1020.5 0.0
18/08:00pm 20.0 16.5 7.1 43 6.6 N 15 17 8 9 1020.0 1020.0 0.0
18/07:30pm 21.2 18.3 8.1 43 6.9 NNW 13 17 7 9 1019.8 1019.8 0.0
18/07:00pm 24.3 21.1 8.3 36 8.6 N 15 19 8 10 1019.7 1019.7 0.0
18/06:30pm 25.7 21.1 6.3 29 10.2 N 20 28 11 15 1019.6 1019.6 0.0
18/06:00pm 26.4 21.8 6.4 28 10.5 N 20 28 11 15 1019.8 1019.8 0.0
18/05:30pm 26.9 21.2 6.9 28 10.7 N 26 35 14 19 1019.8 1019.8 0.0
18/05:00pm 26.5 21.6 7.0 29 10.4 N 22 32 12 17 1019.9 1019.9 0.0
18/04:30pm 26.1 19.6 6.7 29 10.3 N 30 37 16 20 1019.9 1019.9 0.0
18/04:00pm 26.9 19.8 6.3 27 10.9 N 33 43 18 23 1020.2 1020.2 0.0
18/03:30pm 27.0 19.8 7.5 29 10.5 N 35 44 19 24 1020.5 1020.5 0.0
18/03:00pm 24.6 17.1 6.4 31 9.5 N 35 46 19 25 1020.8 1020.8 0.0
18/02:30pm 25.3 18.2 6.5 30 9.9 N 33 50 18 27 1021.3 1021.3 0.0
18/02:00pm 25.2 19.0 7.8 33 9.3 N 30 41 16 22 1021.8 1021.8 0.0
18/01:30pm 23.5 17.2 7.6 36 8.4 N 30 37 16 20 1022.3 1022.3 0.0
18/01:00pm 22.8 15.6 5.7 33 8.7 N 33 44 18 24 1022.4 1022.5 0.0
18/12:30pm 23.2 16.1 6.5 34 8.7 N 33 43 18 23 1023.3 1023.4 0.0
18/12:00pm 22.5 15.5 6.7 36 8.2 N 33 43 18 23 1023.1 1023.2 0.0
18/11:30am 21.6 14.5 6.3 37 7.8 N 33 44 18 24 1023.5 1023.6 0.0
18/11:00am 20.3 12.1 4.8 36 7.6 N 37 46 20 25 1024.1 1024.1 0.0
18/10:30am 20.2 12.9 5.4 38 7.4 N 33 43 18 23 1024.5 1024.5 0.0
18/10:00am 19.4 12.2 5.8 41 6.8 N 33 44 18 24 1024.6 1024.6 0.0
18/09:30am 17.4 10.6 5.0 44 6.0 N 30 41 16 22 1024.6 1024.6 0.0
18/09:00am 17.0 9.7 4.7 44 5.9 N 32 41 17 22 1024.6 1024.6 0.0
18/08:30am 15.6 9.1 4.6 48 5.2 N 28 35 15 19 1024.5 1024.5 0.0
18/08:00am 14.2 8.4 4.2 51 4.6 N 24 32 13 17 1024.1 1024.1 0.0
18/07:30am 13.7 8.3 4.3 53 4.4 N 22 28 12 15 1024.3 1024.3 0.0
18/07:00am 13.3 7.7 3.7 52 4.4 N 22 26 12 14 1024.1 1024.1 0.0
18/06:30am 13.4 8.2 3.8 52 4.4 N 20 28 11 15 1023.5 1023.6 0.0
18/06:00am 13.6 7.7 3.7 51 4.5 N 24 33 13 18 1023.1 1023.2 0.0
18/05:30am 11.6 7.2 4.8 63 3.1 N 17 20 9 11 1023.2 1023.3 0.0
18/05:00am 11.2 7.2 5.1 66 2.8 NNE 15 17 8 9 1023.1 1023.2 0.0
18/04:30am 9.3 5.8 5.3 76 1.8 ENE 13 17 7 9 1023.0 1023.1 0.0
18/04:00am 10.4 7.3 5.6 72 2.2 NE 11 13 6 7 1022.8 1022.9 0.0
18/03:30am 10.8 9.3 6.6 75 2.0 N 4 13 2 7 1022.8 1022.9 0.0
18/03:00am 11.4 7.3 6.3 71 2.4 N 17 20 9 11 1022.2 1022.2 0.0
18/02:30am 10.4 7.4 7.5 82 1.4 N 13 17 7 9 1022.4 1022.5 0.0
18/02:00am 10.0 7.0 7.6 85 1.2 NNE 13 15 7 8 1022.8 1022.9 0.0
18/01:30am 10.8 7.4 7.5 80 1.6 NE 15 19 8 10 1022.8 1022.9 0.0
18/01:00am 10.3 6.7 6.8 79 1.7 ENE 15 17 8 9 1023.2 1023.3 0.0
18/12:30am 10.2 6.4 7.4 83 1.4 E 17 20 9 11 1023.5 1023.6 0.0
18/12:00am 8.0 4.1 7.2 95 0.4 E 17 17 9 9 1023.8 1023.9 0.0
 
Date/Time
EDT
Temp
°C
App
Temp
°C
Dew
Point
Rel
Hum
%
Delta-T
°C
Wind Press
QNH
hPa
Press
MSL
hPa
Rain
since 9 am
mm
Dir
 
Spd
km/h
Gust
km/h
Spd
kts
Gust
kts
17/11:30pm 7.8 3.5 7.2 96 0.3 E 19 20 10 11 1024.2 1024.2 0.0
17/11:00pm 7.0 2.9 6.4 96 0.3 E 17 19 9 10 1024.7 1024.7 0.0
17/10:30pm 7.5 3.5 6.6 94 0.4 ESE 17 19 9 10 1025.0 1025.0 0.0

Other Formats:

Comma delimited format used in spreadsheet applications
http://www.bom.gov.au/fwo/IDV60801/IDV60801.94829.axf

JavaScript Object Notation format (JSON) in row-major order
http://www.bom.gov.au/fwo/IDV60801/IDV60801.94829.json